sensor_id;sensor_type;location;lat;lon;timestamp;temperature;humidity
43338;DHT22;28933;52.492;13.434;2023-05-27T00:01:23;13.90;78.70
43338;DHT22;28933;52.492;13.434;2023-05-27T00:03:49;13.80;78.70
43338;DHT22;28933;52.492;13.434;2023-05-27T00:06:14;13.80;78.90
43338;DHT22;28933;52.492;13.434;2023-05-27T00:08:40;13.80;79.20
43338;DHT22;28933;52.492;13.434;2023-05-27T00:11:06;13.70;79.40
43338;DHT22;28933;52.492;13.434;2023-05-27T00:13:31;13.70;79.70
43338;DHT22;28933;52.492;13.434;2023-05-27T00:15:57;13.70;79.80
43338;DHT22;28933;52.492;13.434;2023-05-27T00:18:23;13.70;80.00
43338;DHT22;28933;52.492;13.434;2023-05-27T00:20:48;13.60;80.10
43338;DHT22;28933;52.492;13.434;2023-05-27T00:23:14;13.60;80.20
43338;DHT22;28933;52.492;13.434;2023-05-27T00:25:40;13.60;80.80
43338;DHT22;28933;52.492;13.434;2023-05-27T00:28:06;13.60;80.90
43338;DHT22;28933;52.492;13.434;2023-05-27T00:30:31;13.50;80.90
43338;DHT22;28933;52.492;13.434;2023-05-27T00:32:57;13.50;80.90
43338;DHT22;28933;52.492;13.434;2023-05-27T00:35:23;13.50;80.90
43338;DHT22;28933;52.492;13.434;2023-05-27T00:37:48;13.50;81.10
43338;DHT22;28933;52.492;13.434;2023-05-27T00:40:15;13.40;81.10
43338;DHT22;28933;52.492;13.434;2023-05-27T00:42:43;13.40;81.20
43338;DHT22;28933;52.492;13.434;2023-05-27T00:45:10;13.40;81.50
43338;DHT22;28933;52.492;13.434;2023-05-27T00:47:36;13.40;81.50
43338;DHT22;28933;52.492;13.434;2023-05-27T00:50:03;13.30;81.70
43338;DHT22;28933;52.492;13.434;2023-05-27T00:52:29;13.30;81.90
43338;DHT22;28933;52.492;13.434;2023-05-27T00:54:55;13.30;82.00
43338;DHT22;28933;52.492;13.434;2023-05-27T00:57:22;13.30;82.00
43338;DHT22;28933;52.492;13.434;2023-05-27T00:59:48;13.30;82.20
43338;DHT22;28933;52.492;13.434;2023-05-27T01:02:14;13.30;82.80
43338;DHT22;28933;52.492;13.434;2023-05-27T01:04:40;13.30;82.40
43338;DHT22;28933;52.492;13.434;2023-05-27T01:09:53;13.30;82.80
43338;DHT22;28933;52.492;13.434;2023-05-27T01:12:27;13.20;82.90
43338;DHT22;28933;52.492;13.434;2023-05-27T01:14:56;13.20;83.00
43338;DHT22;28933;52.492;13.434;2023-05-27T01:17:23;13.20;82.50
43338;DHT22;28933;52.492;13.434;2023-05-27T01:19:51;13.20;82.90
43338;DHT22;28933;52.492;13.434;2023-05-27T01:22:19;13.10;83.20
43338;DHT22;28933;52.492;13.434;2023-05-27T01:24:45;13.10;83.60
43338;DHT22;28933;52.492;13.434;2023-05-27T01:27:12;13.20;83.70
43338;DHT22;28933;52.492;13.434;2023-05-27T01:29:41;13.10;83.90
43338;DHT22;28933;52.492;13.434;2023-05-27T01:32:15;13.20;83.90
43338;DHT22;28933;52.492;13.434;2023-05-27T01:37:25;13.10;84.10
43338;DHT22;28933;52.492;13.434;2023-05-27T01:39:55;13.10;84.20
43338;DHT22;28933;52.492;13.434;2023-05-27T01:42:21;13.10;84.30
43338;DHT22;28933;52.492;13.434;2023-05-27T01:44:47;13.10;84.40
43338;DHT22;28933;52.492;13.434;2023-05-27T01:47:13;13.10;84.60
43338;DHT22;28933;52.492;13.434;2023-05-27T01:49:39;13.00;84.70
43338;DHT22;28933;52.492;13.434;2023-05-27T01:52:05;13.00;85.20
43338;DHT22;28933;52.492;13.434;2023-05-27T01:54:31;13.00;84.70
43338;DHT22;28933;52.492;13.434;2023-05-27T01:56:57;13.00;84.90
43338;DHT22;28933;52.492;13.434;2023-05-27T01:59:22;13.00;85.10
43338;DHT22;28933;52.492;13.434;2023-05-27T02:01:48;13.00;85.20
43338;DHT22;28933;52.492;13.434;2023-05-27T02:04:14;12.90;85.20
43338;DHT22;28933;52.492;13.434;2023-05-27T02:06:39;12.90;85.40
43338;DHT22;28933;52.492;13.434;2023-05-27T02:09:05;12.90;85.60
43338;DHT22;28933;52.492;13.434;2023-05-27T02:11:32;12.90;85.60
43338;DHT22;28933;52.492;13.434;2023-05-27T02:13:57;12.90;85.80
43338;DHT22;28933;52.492;13.434;2023-05-27T02:16:24;12.90;86.00
43338;DHT22;28933;52.492;13.434;2023-05-27T02:18:50;12.90;86.10
43338;DHT22;28933;52.492;13.434;2023-05-27T02:21:16;12.80;86.80
43338;DHT22;28933;52.492;13.434;2023-05-27T02:23:42;12.80;86.50
43338;DHT22;28933;52.492;13.434;2023-05-27T02:26:08;12.80;86.60
43338;DHT22;28933;52.492;13.434;2023-05-27T02:28:33;12.80;86.70
43338;DHT22;28933;52.492;13.434;2023-05-27T02:30:59;12.80;86.80
43338;DHT22;28933;52.492;13.434;2023-05-27T02:33:25;12.80;87.00
43338;DHT22;28933;52.492;13.434;2023-05-27T02:35:51;12.80;87.10
43338;DHT22;28933;52.492;13.434;2023-05-27T02:38:16;12.80;87.30
43338;DHT22;28933;52.492;13.434;2023-05-27T02:40:42;12.80;87.20
43338;DHT22;28933;52.492;13.434;2023-05-27T02:43:08;12.90;87.30
43338;DHT22;28933;52.492;13.434;2023-05-27T02:45:33;12.80;87.30
43338;DHT22;28933;52.492;13.434;2023-05-27T02:47:59;12.80;87.40
43338;DHT22;28933;52.492;13.434;2023-05-27T02:50:26;12.80;87.50
43338;DHT22;28933;52.492;13.434;2023-05-27T02:52:52;12.80;87.60
43338;DHT22;28933;52.492;13.434;2023-05-27T02:55:18;12.80;87.80
43338;DHT22;28933;52.492;13.434;2023-05-27T02:57:43;12.80;87.90
43338;DHT22;28933;52.492;13.434;2023-05-27T03:00:09;12.80;88.10
43338;DHT22;28933;52.492;13.434;2023-05-27T03:02:36;12.80;88.40
43338;DHT22;28933;52.492;13.434;2023-05-27T03:05:02;12.80;88.50
43338;DHT22;28933;52.492;13.434;2023-05-27T03:07:28;12.80;88.50
43338;DHT22;28933;52.492;13.434;2023-05-27T03:09:57;12.80;88.60
43338;DHT22;28933;52.492;13.434;2023-05-27T03:12:23;12.80;88.70
43338;DHT22;28933;52.492;13.434;2023-05-27T03:14:49;12.80;88.80
43338;DHT22;28933;52.492;13.434;2023-05-27T03:17:19;12.80;88.80
43338;DHT22;28933;52.492;13.434;2023-05-27T03:19:45;12.80;89.00
43338;DHT22;28933;52.492;13.434;2023-05-27T03:22:12;12.80;89.10
43338;DHT22;28933;52.492;13.434;2023-05-27T03:24:37;12.80;89.10
43338;DHT22;28933;52.492;13.434;2023-05-27T03:27:03;12.80;89.30
43338;DHT22;28933;52.492;13.434;2023-05-27T03:29:29;12.80;89.30
43338;DHT22;28933;52.492;13.434;2023-05-27T03:31:56;12.80;89.20
43338;DHT22;28933;52.492;13.434;2023-05-27T03:34:22;12.80;89.30
43338;DHT22;28933;52.492;13.434;2023-05-27T03:36:48;12.80;89.50
43338;DHT22;28933;52.492;13.434;2023-05-27T03:39:15;12.80;89.60
43338;DHT22;28933;52.492;13.434;2023-05-27T03:41:42;12.80;89.60
43338;DHT22;28933;52.492;13.434;2023-05-27T03:44:08;12.80;89.80
43338;DHT22;28933;52.492;13.434;2023-05-27T03:46:34;12.80;89.90
43338;DHT22;28933;52.492;13.434;2023-05-27T03:49:01;12.90;89.90
43338;DHT22;28933;52.492;13.434;2023-05-27T03:51:26;12.90;90.00
43338;DHT22;28933;52.492;13.434;2023-05-27T03:53:52;12.80;90.10
43338;DHT22;28933;52.492;13.434;2023-05-27T03:56:19;12.80;90.20
43338;DHT22;28933;52.492;13.434;2023-05-27T03:58:45;12.80;90.20
43338;DHT22;28933;52.492;13.434;2023-05-27T04:01:11;12.90;90.30
43338;DHT22;28933;52.492;13.434;2023-05-27T04:03:37;12.90;90.30
43338;DHT22;28933;52.492;13.434;2023-05-27T04:06:04;12.90;90.30
43338;DHT22;28933;52.492;13.434;2023-05-27T04:08:31;12.90;90.30
43338;DHT22;28933;52.492;13.434;2023-05-27T04:10:57;12.90;90.30
43338;DHT22;28933;52.492;13.434;2023-05-27T04:13:23;12.90;90.30
43338;DHT22;28933;52.492;13.434;2023-05-27T04:15:48;12.90;90.30
43338;DHT22;28933;52.492;13.434;2023-05-27T04:18:14;12.90;90.40
43338;DHT22;28933;52.492;13.434;2023-05-27T04:20:41;13.00;90.40
43338;DHT22;28933;52.492;13.434;2023-05-27T04:23:09;12.90;90.40
43338;DHT22;28933;52.492;13.434;2023-05-27T04:25:35;13.00;90.50
43338;DHT22;28933;52.492;13.434;2023-05-27T04:28:01;13.00;90.60
43338;DHT22;28933;52.492;13.434;2023-05-27T04:30:31;13.00;90.60
43338;DHT22;28933;52.492;13.434;2023-05-27T04:32:56;13.00;90.50
43338;DHT22;28933;52.492;13.434;2023-05-27T04:35:23;13.10;90.60
43338;DHT22;28933;52.492;13.434;2023-05-27T04:37:49;13.10;90.60
43338;DHT22;28933;52.492;13.434;2023-05-27T04:40:14;13.10;90.50
43338;DHT22;28933;52.492;13.434;2023-05-27T04:42:43;13.10;90.50
43338;DHT22;28933;52.492;13.434;2023-05-27T04:45:10;13.10;90.50
43338;DHT22;28933;52.492;13.434;2023-05-27T04:47:37;13.10;90.60
43338;DHT22;28933;52.492;13.434;2023-05-27T04:50:07;13.10;90.60
43338;DHT22;28933;52.492;13.434;2023-05-27T04:52:33;13.10;90.70
43338;DHT22;28933;52.492;13.434;2023-05-27T04:55:06;13.10;90.80
43338;DHT22;28933;52.492;13.434;2023-05-27T04:57:32;13.20;90.80
43338;DHT22;28933;52.492;13.434;2023-05-27T04:59:58;13.10;90.90
43338;DHT22;28933;52.492;13.434;2023-05-27T05:02:43;13.20;91.10
43338;DHT22;28933;52.492;13.434;2023-05-27T05:05:12;13.30;90.90
43338;DHT22;28933;52.492;13.434;2023-05-27T05:07:38;13.30;90.90
43338;DHT22;28933;52.492;13.434;2023-05-27T05:10:07;13.40;91.00
43338;DHT22;28933;52.492;13.434;2023-05-27T05:12:33;13.40;91.00
43338;DHT22;28933;52.492;13.434;2023-05-27T05:14:59;13.50;90.90
43338;DHT22;28933;52.492;13.434;2023-05-27T05:17:25;13.60;91.00
43338;DHT22;28933;52.492;13.434;2023-05-27T05:19:53;13.60;90.90
43338;DHT22;28933;52.492;13.434;2023-05-27T05:22:20;13.60;90.80
43338;DHT22;28933;52.492;13.434;2023-05-27T05:24:48;13.60;90.70
43338;DHT22;28933;52.492;13.434;2023-05-27T05:27:14;13.70;90.70
43338;DHT22;28933;52.492;13.434;2023-05-27T05:29:40;13.70;90.60
43338;DHT22;28933;52.492;13.434;2023-05-27T05:32:06;13.80;90.60
43338;DHT22;28933;52.492;13.434;2023-05-27T05:34:32;13.80;90.50
43338;DHT22;28933;52.492;13.434;2023-05-27T05:36:58;13.90;90.40
43338;DHT22;28933;52.492;13.434;2023-05-27T05:39:23;13.90;90.40
43338;DHT22;28933;52.492;13.434;2023-05-27T05:41:49;14.00;90.40
43338;DHT22;28933;52.492;13.434;2023-05-27T05:44:15;14.00;90.30
43338;DHT22;28933;52.492;13.434;2023-05-27T05:46:41;14.10;90.20
43338;DHT22;28933;52.492;13.434;2023-05-27T05:49:07;14.20;90.00
43338;DHT22;28933;52.492;13.434;2023-05-27T05:51:33;14.20;89.60
43338;DHT22;28933;52.492;13.434;2023-05-27T05:53:59;14.20;89.50
43338;DHT22;28933;52.492;13.434;2023-05-27T05:56:25;14.20;88.70
43338;DHT22;28933;52.492;13.434;2023-05-27T05:58:53;14.20;88.20
43338;DHT22;28933;52.492;13.434;2023-05-27T06:01:19;14.30;88.00
43338;DHT22;28933;52.492;13.434;2023-05-27T06:03:45;14.30;87.60
43338;DHT22;28933;52.492;13.434;2023-05-27T06:06:10;14.40;87.20
43338;DHT22;28933;52.492;13.434;2023-05-27T06:08:36;14.40;86.80
43338;DHT22;28933;52.492;13.434;2023-05-27T06:11:02;14.50;86.60
43338;DHT22;28933;52.492;13.434;2023-05-27T06:13:27;14.50;86.00
43338;DHT22;28933;52.492;13.434;2023-05-27T06:15:53;14.60;85.70
43338;DHT22;28933;52.492;13.434;2023-05-27T06:18:21;14.60;85.00
43338;DHT22;28933;52.492;13.434;2023-05-27T06:20:46;14.70;84.30
43338;DHT22;28933;52.492;13.434;2023-05-27T06:23:12;14.70;83.60
43338;DHT22;28933;52.492;13.434;2023-05-27T06:25:38;14.80;83.60
43338;DHT22;28933;52.492;13.434;2023-05-27T06:28:04;14.80;83.00
43338;DHT22;28933;52.492;13.434;2023-05-27T06:30:31;14.80;81.90
43338;DHT22;28933;52.492;13.434;2023-05-27T06:32:57;14.90;81.20
43338;DHT22;28933;52.492;13.434;2023-05-27T06:35:22;15.00;81.20
43338;DHT22;28933;52.492;13.434;2023-05-27T06:37:48;15.00;80.10
43338;DHT22;28933;52.492;13.434;2023-05-27T06:40:13;15.10;79.90
43338;DHT22;28933;52.492;13.434;2023-05-27T06:42:39;15.10;79.00
43338;DHT22;28933;52.492;13.434;2023-05-27T06:45:05;15.10;77.60
43338;DHT22;28933;52.492;13.434;2023-05-27T06:47:31;15.10;77.50
43338;DHT22;28933;52.492;13.434;2023-05-27T06:49:57;15.20;76.40
43338;DHT22;28933;52.492;13.434;2023-05-27T06:52:22;15.20;76.10
43338;DHT22;28933;52.492;13.434;2023-05-27T06:54:48;15.30;75.80
43338;DHT22;28933;52.492;13.434;2023-05-27T06:57:14;15.30;75.60
43338;DHT22;28933;52.492;13.434;2023-05-27T06:59:40;15.40;74.70
43338;DHT22;28933;52.492;13.434;2023-05-27T07:02:06;15.40;74.30
43338;DHT22;28933;52.492;13.434;2023-05-27T07:04:32;15.50;74.00
43338;DHT22;28933;52.492;13.434;2023-05-27T07:06:58;15.60;73.70
43338;DHT22;28933;52.492;13.434;2023-05-27T07:09:24;15.60;72.40
43338;DHT22;28933;52.492;13.434;2023-05-27T07:11:50;15.70;72.60
43338;DHT22;28933;52.492;13.434;2023-05-27T07:14:15;15.80;71.50
43338;DHT22;28933;52.492;13.434;2023-05-27T07:16:41;15.80;71.00
43338;DHT22;28933;52.492;13.434;2023-05-27T07:19:07;15.90;70.30
43338;DHT22;28933;52.492;13.434;2023-05-27T07:21:33;15.90;70.30
43338;DHT22;28933;52.492;13.434;2023-05-27T07:24:00;16.00;70.00
43338;DHT22;28933;52.492;13.434;2023-05-27T07:26:29;16.10;70.90
43338;DHT22;28933;52.492;13.434;2023-05-27T07:28:57;16.20;70.00
43338;DHT22;28933;52.492;13.434;2023-05-27T07:31:24;16.20;69.00
43338;DHT22;28933;52.492;13.434;2023-05-27T07:33:49;16.20;68.20
43338;DHT22;28933;52.492;13.434;2023-05-27T07:36:15;16.30;68.10
43338;DHT22;28933;52.492;13.434;2023-05-27T07:38:41;16.30;67.90
43338;DHT22;28933;52.492;13.434;2023-05-27T07:41:06;16.30;67.70
43338;DHT22;28933;52.492;13.434;2023-05-27T07:43:32;16.40;67.00
43338;DHT22;28933;52.492;13.434;2023-05-27T07:45:57;16.50;66.80
43338;DHT22;28933;52.492;13.434;2023-05-27T07:48:23;16.50;66.10
43338;DHT22;28933;52.492;13.434;2023-05-27T07:50:49;16.50;66.10
43338;DHT22;28933;52.492;13.434;2023-05-27T07:53:14;16.60;66.40
43338;DHT22;28933;52.492;13.434;2023-05-27T07:55:40;16.70;67.00
43338;DHT22;28933;52.492;13.434;2023-05-27T07:58:06;16.80;66.80
43338;DHT22;28933;52.492;13.434;2023-05-27T08:00:31;16.90;66.80
43338;DHT22;28933;52.492;13.434;2023-05-27T08:02:57;17.00;67.20
43338;DHT22;28933;52.492;13.434;2023-05-27T08:05:23;17.00;64.90
43338;DHT22;28933;52.492;13.434;2023-05-27T08:07:49;17.00;63.10
43338;DHT22;28933;52.492;13.434;2023-05-27T08:10:15;17.00;62.40
43338;DHT22;28933;52.492;13.434;2023-05-27T08:12:40;17.00;62.00
43338;DHT22;28933;52.492;13.434;2023-05-27T08:15:06;17.10;61.80
43338;DHT22;28933;52.492;13.434;2023-05-27T08:17:32;17.20;62.10
43338;DHT22;28933;52.492;13.434;2023-05-27T08:19:58;17.20;61.20
43338;DHT22;28933;52.492;13.434;2023-05-27T08:22:24;17.30;60.90
43338;DHT22;28933;52.492;13.434;2023-05-27T08:24:50;17.30;60.90
43338;DHT22;28933;52.492;13.434;2023-05-27T08:27:16;17.40;61.00
43338;DHT22;28933;52.492;13.434;2023-05-27T08:29:42;17.40;59.90
43338;DHT22;28933;52.492;13.434;2023-05-27T08:32:08;17.50;60.00
43338;DHT22;28933;52.492;13.434;2023-05-27T08:34:34;17.60;59.70
43338;DHT22;28933;52.492;13.434;2023-05-27T08:36:59;17.60;59.00
43338;DHT22;28933;52.492;13.434;2023-05-27T08:39:26;17.60;57.90
43338;DHT22;28933;52.492;13.434;2023-05-27T08:41:52;17.60;57.30
43338;DHT22;28933;52.492;13.434;2023-05-27T08:44:21;17.60;56.60
43338;DHT22;28933;52.492;13.434;2023-05-27T08:46:49;17.60;56.30
43338;DHT22;28933;52.492;13.434;2023-05-27T08:49:18;17.70;57.20
43338;DHT22;28933;52.492;13.434;2023-05-27T08:51:45;17.80;57.80
43338;DHT22;28933;52.492;13.434;2023-05-27T08:54:11;17.80;56.80
43338;DHT22;28933;52.492;13.434;2023-05-27T08:56:37;17.80;57.20
43338;DHT22;28933;52.492;13.434;2023-05-27T08:59:04;17.90;56.30
43338;DHT22;28933;52.492;13.434;2023-05-27T09:01:30;17.80;56.80
43338;DHT22;28933;52.492;13.434;2023-05-27T09:03:57;17.90;56.30
43338;DHT22;28933;52.492;13.434;2023-05-27T09:06:23;17.90;56.60
43338;DHT22;28933;52.492;13.434;2023-05-27T09:08:48;18.00;56.90
43338;DHT22;28933;52.492;13.434;2023-05-27T09:11:22;18.10;58.30
43338;DHT22;28933;52.492;13.434;2023-05-27T09:13:48;18.20;58.70
43338;DHT22;28933;52.492;13.434;2023-05-27T09:16:14;18.40;57.00
43338;DHT22;28933;52.492;13.434;2023-05-27T09:18:41;18.30;55.90
43338;DHT22;28933;52.492;13.434;2023-05-27T09:21:07;18.40;55.90
43338;DHT22;28933;52.492;13.434;2023-05-27T09:23:37;18.40;55.60
43338;DHT22;28933;52.492;13.434;2023-05-27T09:26:10;18.30;54.60
43338;DHT22;28933;52.492;13.434;2023-05-27T09:28:37;18.40;55.40
43338;DHT22;28933;52.492;13.434;2023-05-27T09:31:05;18.50;55.90
43338;DHT22;28933;52.492;13.434;2023-05-27T09:33:32;18.50;55.90
43338;DHT22;28933;52.492;13.434;2023-05-27T09:35:59;18.70;56.00
43338;DHT22;28933;52.492;13.434;2023-05-27T09:38:28;18.80;55.80
43338;DHT22;28933;52.492;13.434;2023-05-27T09:40:54;18.80;54.20
43338;DHT22;28933;52.492;13.434;2023-05-27T09:43:20;18.90;54.10
43338;DHT22;28933;52.492;13.434;2023-05-27T09:45:45;18.90;53.90
43338;DHT22;28933;52.492;13.434;2023-05-27T09:48:12;19.00;54.10
43338;DHT22;28933;52.492;13.434;2023-05-27T09:50:41;19.00;53.80
43338;DHT22;28933;52.492;13.434;2023-05-27T09:53:08;19.10;53.00
43338;DHT22;28933;52.492;13.434;2023-05-27T09:55:34;19.10;52.40
43338;DHT22;28933;52.492;13.434;2023-05-27T09:58:00;19.10;52.50
43338;DHT22;28933;52.492;13.434;2023-05-27T10:00:26;19.10;52.20
43338;DHT22;28933;52.492;13.434;2023-05-27T10:02:52;19.20;52.10
43338;DHT22;28933;52.492;13.434;2023-05-27T10:05:19;19.20;51.80
43338;DHT22;28933;52.492;13.434;2023-05-27T10:07:48;19.20;51.80
43338;DHT22;28933;52.492;13.434;2023-05-27T10:10:17;19.20;51.60
43338;DHT22;28933;52.492;13.434;2023-05-27T10:12:45;19.20;51.70
43338;DHT22;28933;52.492;13.434;2023-05-27T10:15:24;19.30;51.50
43338;DHT22;28933;52.492;13.434;2023-05-27T10:20:35;19.20;51.50
43338;DHT22;28933;52.492;13.434;2023-05-27T10:28:29;19.40;51.70
43338;DHT22;28933;52.492;13.434;2023-05-27T10:31:18;19.40;51.90
43338;DHT22;28933;52.492;13.434;2023-05-27T10:33:46;19.50;51.70
43338;DHT22;28933;52.492;13.434;2023-05-27T10:36:21;19.60;51.80
43338;DHT22;28933;52.492;13.434;2023-05-27T10:38:57;19.60;52.30
43338;DHT22;28933;52.492;13.434;2023-05-27T10:41:23;19.70;52.30
43338;DHT22;28933;52.492;13.434;2023-05-27T10:43:58;19.70;52.30
43338;DHT22;28933;52.492;13.434;2023-05-27T10:46:24;19.70;52.00
43338;DHT22;28933;52.492;13.434;2023-05-27T10:48:51;19.60;51.90
43338;DHT22;28933;52.492;13.434;2023-05-27T10:51:16;19.70;52.60
43338;DHT22;28933;52.492;13.434;2023-05-27T10:53:42;19.70;52.60
43338;DHT22;28933;52.492;13.434;2023-05-27T10:56:09;19.70;52.10
43338;DHT22;28933;52.492;13.434;2023-05-27T10:58:36;19.80;52.70
43338;DHT22;28933;52.492;13.434;2023-05-27T11:01:16;19.80;52.20
43338;DHT22;28933;52.492;13.434;2023-05-27T11:03:44;19.80;52.10
43338;DHT22;28933;52.492;13.434;2023-05-27T11:06:10;19.90;51.90
43338;DHT22;28933;52.492;13.434;2023-05-27T11:08:36;19.90;51.50
43338;DHT22;28933;52.492;13.434;2023-05-27T11:11:06;19.90;51.80
43338;DHT22;28933;52.492;13.434;2023-05-27T11:13:36;19.90;52.20
43338;DHT22;28933;52.492;13.434;2023-05-27T11:16:05;20.00;52.20
43338;DHT22;28933;52.492;13.434;2023-05-27T11:18:42;20.00;52.20
43338;DHT22;28933;52.492;13.434;2023-05-27T11:21:10;20.10;52.10
43338;DHT22;28933;52.492;13.434;2023-05-27T11:23:41;20.20;51.70
43338;DHT22;28933;52.492;13.434;2023-05-27T11:26:19;20.20;51.60
43338;DHT22;28933;52.492;13.434;2023-05-27T11:29:06;20.30;52.00
43338;DHT22;28933;52.492;13.434;2023-05-27T11:31:31;20.30;51.80
43338;DHT22;28933;52.492;13.434;2023-05-27T11:33:57;20.40;51.60
43338;DHT22;28933;52.492;13.434;2023-05-27T11:36:26;20.40;51.40
43338;DHT22;28933;52.492;13.434;2023-05-27T11:38:59;20.40;51.80
43338;DHT22;28933;52.492;13.434;2023-05-27T11:41:32;20.40;51.10
43338;DHT22;28933;52.492;13.434;2023-05-27T11:44:00;20.40;51.10
43338;DHT22;28933;52.492;13.434;2023-05-27T11:46:44;20.50;51.10
43338;DHT22;28933;52.492;13.434;2023-05-27T11:49:12;20.50;50.90
43338;DHT22;28933;52.492;13.434;2023-05-27T11:54:18;20.50;50.90
43338;DHT22;28933;52.492;13.434;2023-05-27T11:56:44;20.50;50.50
43338;DHT22;28933;52.492;13.434;2023-05-27T11:59:10;20.60;50.70
43338;DHT22;28933;52.492;13.434;2023-05-27T12:01:35;20.60;51.30
43338;DHT22;28933;52.492;13.434;2023-05-27T12:04:02;20.70;51.10
43338;DHT22;28933;52.492;13.434;2023-05-27T12:06:27;20.70;50.80
43338;DHT22;28933;52.492;13.434;2023-05-27T12:08:53;20.80;50.70
43338;DHT22;28933;52.492;13.434;2023-05-27T12:11:18;20.90;50.30
43338;DHT22;28933;52.492;13.434;2023-05-27T12:13:44;20.90;50.10
43338;DHT22;28933;52.492;13.434;2023-05-27T12:16:10;21.00;50.20
43338;DHT22;28933;52.492;13.434;2023-05-27T12:18:36;21.10;50.40
43338;DHT22;28933;52.492;13.434;2023-05-27T12:21:02;21.10;50.00
43338;DHT22;28933;52.492;13.434;2023-05-27T12:23:28;21.20;49.40
43338;DHT22;28933;52.492;13.434;2023-05-27T12:25:53;21.20;49.40
43338;DHT22;28933;52.492;13.434;2023-05-27T12:28:19;21.20;49.70
43338;DHT22;28933;52.492;13.434;2023-05-27T12:30:46;21.30;50.10
43338;DHT22;28933;52.492;13.434;2023-05-27T12:33:11;21.40;50.40
43338;DHT22;28933;52.492;13.434;2023-05-27T12:35:37;21.50;50.70
43338;DHT22;28933;52.492;13.434;2023-05-27T12:38:03;21.60;49.90
43338;DHT22;28933;52.492;13.434;2023-05-27T12:40:28;21.70;49.80
43338;DHT22;28933;52.492;13.434;2023-05-27T12:42:54;21.70;49.00
43338;DHT22;28933;52.492;13.434;2023-05-27T12:45:20;21.80;49.30
43338;DHT22;28933;52.492;13.434;2023-05-27T12:47:51;21.80;48.90
43338;DHT22;28933;52.492;13.434;2023-05-27T12:50:17;21.80;48.40
43338;DHT22;28933;52.492;13.434;2023-05-27T12:52:43;21.80;48.80
43338;DHT22;28933;52.492;13.434;2023-05-27T12:55:15;21.90;49.40
43338;DHT22;28933;52.492;13.434;2023-05-27T12:57:43;22.00;49.00
43338;DHT22;28933;52.492;13.434;2023-05-27T13:00:09;22.10;49.50
43338;DHT22;28933;52.492;13.434;2023-05-27T13:02:35;22.30;49.70
43338;DHT22;28933;52.492;13.434;2023-05-27T13:05:02;22.40;49.40
43338;DHT22;28933;52.492;13.434;2023-05-27T13:07:28;22.50;48.40
43338;DHT22;28933;52.492;13.434;2023-05-27T13:09:54;22.50;48.40
43338;DHT22;28933;52.492;13.434;2023-05-27T13:12:22;22.50;48.10
43338;DHT22;28933;52.492;13.434;2023-05-27T13:14:47;22.50;47.40
43338;DHT22;28933;52.492;13.434;2023-05-27T13:17:13;22.50;47.40
43338;DHT22;28933;52.492;13.434;2023-05-27T13:19:39;22.60;47.70
43338;DHT22;28933;52.492;13.434;2023-05-27T13:22:05;22.70;47.70
43338;DHT22;28933;52.492;13.434;2023-05-27T13:24:31;22.90;48.30
43338;DHT22;28933;52.492;13.434;2023-05-27T13:26:56;23.00;47.50
43338;DHT22;28933;52.492;13.434;2023-05-27T13:29:22;23.10;46.90
43338;DHT22;28933;52.492;13.434;2023-05-27T13:31:47;23.10;46.30
43338;DHT22;28933;52.492;13.434;2023-05-27T13:34:13;23.00;45.50
43338;DHT22;28933;52.492;13.434;2023-05-27T13:36:39;23.00;45.80
43338;DHT22;28933;52.492;13.434;2023-05-27T13:39:04;23.00;45.70
43338;DHT22;28933;52.492;13.434;2023-05-27T13:41:30;23.00;46.10
43338;DHT22;28933;52.492;13.434;2023-05-27T13:43:55;23.10;46.20
43338;DHT22;28933;52.492;13.434;2023-05-27T13:46:21;23.10;46.50
43338;DHT22;28933;52.492;13.434;2023-05-27T13:48:47;23.20;46.50
43338;DHT22;28933;52.492;13.434;2023-05-27T13:51:13;23.30;46.10
43338;DHT22;28933;52.492;13.434;2023-05-27T13:53:38;23.30;45.80
43338;DHT22;28933;52.492;13.434;2023-05-27T13:56:04;23.40;45.90
43338;DHT22;28933;52.492;13.434;2023-05-27T13:58:30;23.40;46.00
43338;DHT22;28933;52.492;13.434;2023-05-27T14:00:56;23.40;45.90
43338;DHT22;28933;52.492;13.434;2023-05-27T14:03:21;23.40;46.10
43338;DHT22;28933;52.492;13.434;2023-05-27T14:05:48;23.50;46.40
43338;DHT22;28933;52.492;13.434;2023-05-27T14:08:15;23.60;47.10
43338;DHT22;28933;52.492;13.434;2023-05-27T14:10:41;23.60;46.10
43338;DHT22;28933;52.492;13.434;2023-05-27T14:13:07;23.70;45.90
43338;DHT22;28933;52.492;13.434;2023-05-27T14:15:33;23.70;46.00
43338;DHT22;28933;52.492;13.434;2023-05-27T14:17:58;23.70;45.80
43338;DHT22;28933;52.492;13.434;2023-05-27T14:20:30;23.80;45.90
43338;DHT22;28933;52.492;13.434;2023-05-27T14:22:56;24.00;46.40
43338;DHT22;28933;52.492;13.434;2023-05-27T14:25:24;24.10;46.30
43338;DHT22;28933;52.492;13.434;2023-05-27T14:27:49;24.20;45.90
43338;DHT22;28933;52.492;13.434;2023-05-27T14:30:15;24.20;45.50
43338;DHT22;28933;52.492;13.434;2023-05-27T14:32:41;24.30;45.00
43338;DHT22;28933;52.492;13.434;2023-05-27T14:35:07;24.20;44.30
43338;DHT22;28933;52.492;13.434;2023-05-27T14:37:33;24.10;44.60
43338;DHT22;28933;52.492;13.434;2023-05-27T14:39:59;24.10;44.40
43338;DHT22;28933;52.492;13.434;2023-05-27T14:42:25;24.00;44.20
43338;DHT22;28933;52.492;13.434;2023-05-27T14:44:51;24.00;44.00
43338;DHT22;28933;52.492;13.434;2023-05-27T14:47:16;24.00;44.20
43338;DHT22;28933;52.492;13.434;2023-05-27T14:49:43;24.10;44.00
43338;DHT22;28933;52.492;13.434;2023-05-27T14:52:09;24.20;44.00
43338;DHT22;28933;52.492;13.434;2023-05-27T14:54:34;24.30;43.90
43338;DHT22;28933;52.492;13.434;2023-05-27T14:57:00;24.30;43.10
43338;DHT22;28933;52.492;13.434;2023-05-27T14:59:26;24.30;42.90
43338;DHT22;28933;52.492;13.434;2023-05-27T15:01:51;24.30;42.80
43338;DHT22;28933;52.492;13.434;2023-05-27T15:04:17;24.20;42.20
43338;DHT22;28933;52.492;13.434;2023-05-27T15:06:42;24.20;42.20
43338;DHT22;28933;52.492;13.434;2023-05-27T15:09:08;24.30;42.50
43338;DHT22;28933;52.492;13.434;2023-05-27T15:11:37;24.30;42.40
43338;DHT22;28933;52.492;13.434;2023-05-27T15:14:03;24.40;42.30
43338;DHT22;28933;52.492;13.434;2023-05-27T15:16:29;24.40;42.60
43338;DHT22;28933;52.492;13.434;2023-05-27T15:18:55;24.50;42.40
43338;DHT22;28933;52.492;13.434;2023-05-27T15:21:21;24.60;42.00
43338;DHT22;28933;52.492;13.434;2023-05-27T15:23:47;24.60;41.70
43338;DHT22;28933;52.492;13.434;2023-05-27T15:26:12;24.60;41.60
43338;DHT22;28933;52.492;13.434;2023-05-27T15:28:38;24.50;41.30